sensor_id;sensor_type;location;lat;lon;timestamp;P1;durP1;ratioP1;P2;durP2;ratioP2
62947;SDS011;51940;52.126;-0.994;2022-08-30T00:01:22;2.80;;;1.70;;
62947;SDS011;51940;52.126;-0.994;2022-08-30T00:03:52;5.40;;;1.80;;
62947;SDS011;51940;52.126;-0.994;2022-08-30T00:06:19;4.40;;;1.80;;
62947;SDS011;51940;52.126;-0.994;2022-08-30T00:08:46;3.10;;;1.80;;
62947;SDS011;51940;52.126;-0.994;2022-08-30T00:11:15;3.10;;;1.80;;
62947;SDS011;51940;52.126;-0.994;2022-08-30T00:13:48;4.30;;;1.50;;
62947;SDS011;51940;52.126;-0.994;2022-08-30T00:16:15;2.80;;;1.70;;
62947;SDS011;51940;52.126;-0.994;2022-08-30T00:18:42;2.00;;;1.80;;
62947;SDS011;51940;52.126;-0.994;2022-08-30T00:21:08;3.00;;;1.80;;
62947;SDS011;51940;52.126;-0.994;2022-08-30T00:23:34;2.60;;;1.70;;
62947;SDS011;51940;52.126;-0.994;2022-08-30T00:26:01;3.50;;;1.60;;
62947;SDS011;51940;52.126;-0.994;2022-08-30T00:28:26;3.10;;;1.70;;
62947;SDS011;51940;52.126;-0.994;2022-08-30T00:30:53;2.70;;;1.80;;
62947;SDS011;51940;52.126;-0.994;2022-08-30T00:33:18;2.60;;;1.70;;
62947;SDS011;51940;52.126;-0.994;2022-08-30T00:35:44;4.80;;;1.80;;
62947;SDS011;51940;52.126;-0.994;2022-08-30T00:38:10;2.40;;;1.50;;
62947;SDS011;51940;52.126;-0.994;2022-08-30T00:40:37;3.20;;;1.80;;
62947;SDS011;51940;52.126;-0.994;2022-08-30T00:43:07;3.20;;;1.50;;
62947;SDS011;51940;52.126;-0.994;2022-08-30T00:45:36;3.00;;;1.80;;
62947;SDS011;51940;52.126;-0.994;2022-08-30T00:48:03;4.50;;;1.80;;
62947;SDS011;51940;52.126;-0.994;2022-08-30T00:50:38;2.20;;;1.70;;
62947;SDS011;51940;52.126;-0.994;2022-08-30T00:53:09;1.70;;;1.30;;
62947;SDS011;51940;52.126;-0.994;2022-08-30T00:55:39;1.50;;;1.20;;
62947;SDS011;51940;52.126;-0.994;2022-08-30T00:58:05;3.80;;;1.60;;
62947;SDS011;51940;52.126;-0.994;2022-08-30T01:00:34;4.30;;;2.20;;
62947;SDS011;51940;52.126;-0.994;2022-08-30T01:03:01;2.20;;;1.60;;
62947;SDS011;51940;52.126;-0.994;2022-08-30T01:05:26;4.50;;;1.70;;
62947;SDS011;51940;52.126;-0.994;2022-08-30T01:07:52;4.60;;;1.50;;
62947;SDS011;51940;52.126;-0.994;2022-08-30T01:10:17;4.30;;;1.60;;
62947;SDS011;51940;52.126;-0.994;2022-08-30T01:12:43;4.20;;;1.50;;
62947;SDS011;51940;52.126;-0.994;2022-08-30T01:15:11;3.10;;;1.40;;
62947;SDS011;51940;52.126;-0.994;2022-08-30T01:17:41;4.10;;;1.60;;
62947;SDS011;51940;52.126;-0.994;2022-08-30T01:20:13;2.80;;;1.60;;
62947;SDS011;51940;52.126;-0.994;2022-08-30T01:25:13;4.00;;;1.80;;
62947;SDS011;51940;52.126;-0.994;2022-08-30T01:27:43;4.30;;;1.50;;
62947;SDS011;51940;52.126;-0.994;2022-08-30T01:30:14;6.40;;;1.70;;
62947;SDS011;51940;52.126;-0.994;2022-08-30T01:32:41;4.30;;;1.60;;
62947;SDS011;51940;52.126;-0.994;2022-08-30T01:35:09;2.50;;;1.60;;
62947;SDS011;51940;52.126;-0.994;2022-08-30T01:37:37;3.00;;;1.50;;
62947;SDS011;51940;52.126;-0.994;2022-08-30T01:40:04;2.20;;;1.60;;
62947;SDS011;51940;52.126;-0.994;2022-08-30T01:42:31;3.60;;;1.50;;
62947;SDS011;51940;52.126;-0.994;2022-08-30T01:44:56;3.10;;;1.60;;
62947;SDS011;51940;52.126;-0.994;2022-08-30T01:47:22;3.60;;;1.50;;
62947;SDS011;51940;52.126;-0.994;2022-08-30T01:49:48;2.40;;;1.50;;
62947;SDS011;51940;52.126;-0.994;2022-08-30T01:52:14;2.30;;;1.50;;
62947;SDS011;51940;52.126;-0.994;2022-08-30T01:54:42;2.10;;;1.50;;
62947;SDS011;51940;52.126;-0.994;2022-08-30T01:57:10;3.50;;;1.80;;
62947;SDS011;51940;52.126;-0.994;2022-08-30T01:59:38;3.60;;;1.90;;
62947;SDS011;51940;52.126;-0.994;2022-08-30T02:02:05;2.50;;;1.50;;
62947;SDS011;51940;52.126;-0.994;2022-08-30T02:04:31;4.20;;;1.70;;
62947;SDS011;51940;52.126;-0.994;2022-08-30T02:06:57;3.40;;;1.50;;
62947;SDS011;51940;52.126;-0.994;2022-08-30T02:09:22;2.80;;;1.50;;
62947;SDS011;51940;52.126;-0.994;2022-08-30T02:11:48;3.50;;;1.80;;
62947;SDS011;51940;52.126;-0.994;2022-08-30T02:14:14;4.00;;;1.90;;
62947;SDS011;51940;52.126;-0.994;2022-08-30T02:16:40;3.40;;;1.70;;
62947;SDS011;51940;52.126;-0.994;2022-08-30T02:19:06;3.30;;;1.60;;
62947;SDS011;51940;52.126;-0.994;2022-08-30T02:21:32;4.80;;;1.90;;
62947;SDS011;51940;52.126;-0.994;2022-08-30T02:23:57;2.40;;;1.60;;
62947;SDS011;51940;52.126;-0.994;2022-08-30T02:26:23;3.50;;;1.50;;
62947;SDS011;51940;52.126;-0.994;2022-08-30T02:28:49;2.80;;;1.70;;
62947;SDS011;51940;52.126;-0.994;2022-08-30T02:31:15;2.70;;;1.60;;
62947;SDS011;51940;52.126;-0.994;2022-08-30T02:33:42;3.60;;;1.90;;
62947;SDS011;51940;52.126;-0.994;2022-08-30T02:36:08;2.20;;;1.50;;
62947;SDS011;51940;52.126;-0.994;2022-08-30T02:38:34;2.10;;;1.50;;
62947;SDS011;51940;52.126;-0.994;2022-08-30T02:41:00;3.00;;;1.60;;
62947;SDS011;51940;52.126;-0.994;2022-08-30T02:43:25;2.50;;;1.70;;
62947;SDS011;51940;52.126;-0.994;2022-08-30T02:45:51;4.00;;;1.70;;
62947;SDS011;51940;52.126;-0.994;2022-08-30T02:48:17;4.30;;;1.70;;
62947;SDS011;51940;52.126;-0.994;2022-08-30T02:50:44;4.30;;;1.70;;
62947;SDS011;51940;52.126;-0.994;2022-08-30T02:53:11;4.00;;;1.50;;
62947;SDS011;51940;52.126;-0.994;2022-08-30T02:55:37;2.90;;;1.60;;
62947;SDS011;51940;52.126;-0.994;2022-08-30T02:58:03;4.10;;;1.70;;
62947;SDS011;51940;52.126;-0.994;2022-08-30T03:00:29;3.80;;;1.70;;
62947;SDS011;51940;52.126;-0.994;2022-08-30T03:02:55;3.30;;;1.60;;
62947;SDS011;51940;52.126;-0.994;2022-08-30T03:05:20;2.10;;;1.60;;
62947;SDS011;51940;52.126;-0.994;2022-08-30T03:07:46;3.60;;;2.10;;
62947;SDS011;51940;52.126;-0.994;2022-08-30T03:10:12;5.30;;;1.90;;
62947;SDS011;51940;52.126;-0.994;2022-08-30T03:12:40;2.50;;;1.80;;
62947;SDS011;51940;52.126;-0.994;2022-08-30T03:15:06;3.20;;;2.10;;
62947;SDS011;51940;52.126;-0.994;2022-08-30T03:17:34;4.80;;;2.10;;
62947;SDS011;51940;52.126;-0.994;2022-08-30T03:19:59;4.10;;;1.90;;
62947;SDS011;51940;52.126;-0.994;2022-08-30T03:22:26;3.70;;;1.70;;
62947;SDS011;51940;52.126;-0.994;2022-08-30T03:24:53;4.60;;;1.70;;
62947;SDS011;51940;52.126;-0.994;2022-08-30T03:27:22;2.90;;;1.70;;
62947;SDS011;51940;52.126;-0.994;2022-08-30T03:29:48;5.20;;;1.80;;
62947;SDS011;51940;52.126;-0.994;2022-08-30T03:32:13;2.20;;;1.90;;
62947;SDS011;51940;52.126;-0.994;2022-08-30T03:34:39;2.70;;;1.90;;
62947;SDS011;51940;52.126;-0.994;2022-08-30T03:37:04;3.50;;;1.70;;
62947;SDS011;51940;52.126;-0.994;2022-08-30T03:39:30;2.30;;;1.90;;
62947;SDS011;51940;52.126;-0.994;2022-08-30T03:41:56;2.40;;;2.00;;
62947;SDS011;51940;52.126;-0.994;2022-08-30T03:44:21;4.00;;;2.00;;
62947;SDS011;51940;52.126;-0.994;2022-08-30T03:46:47;3.40;;;2.10;;
62947;SDS011;51940;52.126;-0.994;2022-08-30T03:49:13;5.30;;;2.10;;
62947;SDS011;51940;52.126;-0.994;2022-08-30T03:51:40;3.30;;;1.80;;
62947;SDS011;51940;52.126;-0.994;2022-08-30T03:54:05;4.60;;;2.00;;
62947;SDS011;51940;52.126;-0.994;2022-08-30T03:56:30;6.70;;;2.30;;
62947;SDS011;51940;52.126;-0.994;2022-08-30T03:58:56;3.40;;;2.10;;
62947;SDS011;51940;52.126;-0.994;2022-08-30T04:01:21;2.10;;;1.60;;
62947;SDS011;51940;52.126;-0.994;2022-08-30T04:03:47;3.70;;;2.10;;
62947;SDS011;51940;52.126;-0.994;2022-08-30T04:06:12;2.40;;;1.90;;
62947;SDS011;51940;52.126;-0.994;2022-08-30T04:08:40;6.80;;;1.90;;
62947;SDS011;51940;52.126;-0.994;2022-08-30T04:11:07;8.40;;;2.30;;
62947;SDS011;51940;52.126;-0.994;2022-08-30T04:13:33;5.10;;;1.80;;
62947;SDS011;51940;52.126;-0.994;2022-08-30T04:15:59;3.80;;;1.70;;
62947;SDS011;51940;52.126;-0.994;2022-08-30T04:18:24;2.50;;;1.60;;
62947;SDS011;51940;52.126;-0.994;2022-08-30T04:20:51;4.70;;;1.80;;
62947;SDS011;51940;52.126;-0.994;2022-08-30T04:23:17;2.00;;;1.50;;
62947;SDS011;51940;52.126;-0.994;2022-08-30T04:25:43;3.20;;;1.90;;
62947;SDS011;51940;52.126;-0.994;2022-08-30T04:28:10;3.40;;;2.00;;
62947;SDS011;51940;52.126;-0.994;2022-08-30T04:30:40;4.80;;;2.20;;
62947;SDS011;51940;52.126;-0.994;2022-08-30T04:33:07;3.10;;;1.60;;
62947;SDS011;51940;52.126;-0.994;2022-08-30T04:35:33;3.60;;;1.80;;
62947;SDS011;51940;52.126;-0.994;2022-08-30T04:37:59;3.40;;;1.80;;
62947;SDS011;51940;52.126;-0.994;2022-08-30T04:40:24;3.40;;;2.10;;
62947;SDS011;51940;52.126;-0.994;2022-08-30T04:42:50;4.50;;;2.00;;
62947;SDS011;51940;52.126;-0.994;2022-08-30T04:45:18;6.40;;;1.70;;
62947;SDS011;51940;52.126;-0.994;2022-08-30T04:47:46;3.70;;;1.90;;
62947;SDS011;51940;52.126;-0.994;2022-08-30T04:50:12;3.40;;;2.00;;
62947;SDS011;51940;52.126;-0.994;2022-08-30T04:52:40;5.90;;;2.00;;
62947;SDS011;51940;52.126;-0.994;2022-08-30T04:55:06;3.10;;;1.80;;
62947;SDS011;51940;52.126;-0.994;2022-08-30T04:57:33;2.50;;;1.70;;
62947;SDS011;51940;52.126;-0.994;2022-08-30T04:59:59;3.60;;;1.90;;
62947;SDS011;51940;52.126;-0.994;2022-08-30T05:02:24;2.20;;;1.80;;
62947;SDS011;51940;52.126;-0.994;2022-08-30T05:04:50;6.00;;;2.00;;
62947;SDS011;51940;52.126;-0.994;2022-08-30T05:07:34;4.00;;;2.10;;
62947;SDS011;51940;52.126;-0.994;2022-08-30T05:10:00;2.80;;;2.00;;
62947;SDS011;51940;52.126;-0.994;2022-08-30T05:12:26;4.40;;;1.70;;
62947;SDS011;51940;52.126;-0.994;2022-08-30T05:14:51;4.50;;;1.70;;
62947;SDS011;51940;52.126;-0.994;2022-08-30T05:17:17;2.90;;;1.60;;
62947;SDS011;51940;52.126;-0.994;2022-08-30T05:19:43;5.20;;;1.80;;
62947;SDS011;51940;52.126;-0.994;2022-08-30T05:22:08;6.10;;;1.70;;
62947;SDS011;51940;52.126;-0.994;2022-08-30T05:24:34;4.20;;;1.90;;
62947;SDS011;51940;52.126;-0.994;2022-08-30T05:27:00;3.00;;;1.70;;
62947;SDS011;51940;52.126;-0.994;2022-08-30T05:29:26;3.60;;;1.80;;
62947;SDS011;51940;52.126;-0.994;2022-08-30T05:31:52;2.10;;;1.50;;
62947;SDS011;51940;52.126;-0.994;2022-08-30T05:34:17;2.80;;;1.80;;
62947;SDS011;51940;52.126;-0.994;2022-08-30T05:36:43;5.50;;;1.80;;
62947;SDS011;51940;52.126;-0.994;2022-08-30T05:39:09;2.80;;;2.20;;
62947;SDS011;51940;52.126;-0.994;2022-08-30T05:41:35;6.30;;;1.50;;
62947;SDS011;51940;52.126;-0.994;2022-08-30T05:44:01;5.10;;;2.10;;
62947;SDS011;51940;52.126;-0.994;2022-08-30T05:46:29;2.80;;;1.60;;
62947;SDS011;51940;52.126;-0.994;2022-08-30T05:49:00;2.60;;;1.70;;
62947;SDS011;51940;52.126;-0.994;2022-08-30T05:51:29;2.00;;;1.70;;
62947;SDS011;51940;52.126;-0.994;2022-08-30T05:53:57;5.10;;;1.80;;
62947;SDS011;51940;52.126;-0.994;2022-08-30T05:56:24;7.60;;;2.70;;
62947;SDS011;51940;52.126;-0.994;2022-08-30T05:58:53;2.60;;;1.70;;
62947;SDS011;51940;52.126;-0.994;2022-08-30T06:01:23;4.00;;;1.70;;
62947;SDS011;51940;52.126;-0.994;2022-08-30T06:03:56;3.20;;;1.60;;
62947;SDS011;51940;52.126;-0.994;2022-08-30T06:06:23;4.10;;;1.60;;
62947;SDS011;51940;52.126;-0.994;2022-08-30T06:08:48;4.40;;;1.80;;
62947;SDS011;51940;52.126;-0.994;2022-08-30T06:11:15;3.20;;;1.80;;
62947;SDS011;51940;52.126;-0.994;2022-08-30T06:13:43;3.30;;;1.70;;
62947;SDS011;51940;52.126;-0.994;2022-08-30T06:16:10;2.50;;;1.50;;
62947;SDS011;51940;52.126;-0.994;2022-08-30T06:18:37;3.50;;;1.60;;
62947;SDS011;51940;52.126;-0.994;2022-08-30T06:21:03;2.60;;;1.70;;
62947;SDS011;51940;52.126;-0.994;2022-08-30T06:23:29;4.30;;;1.50;;
62947;SDS011;51940;52.126;-0.994;2022-08-30T06:25:54;4.20;;;1.70;;
62947;SDS011;51940;52.126;-0.994;2022-08-30T06:28:20;2.90;;;1.70;;
62947;SDS011;51940;52.126;-0.994;2022-08-30T06:30:46;3.30;;;1.60;;
62947;SDS011;51940;52.126;-0.994;2022-08-30T06:33:11;5.30;;;1.70;;
62947;SDS011;51940;52.126;-0.994;2022-08-30T06:35:37;3.90;;;1.60;;
62947;SDS011;51940;52.126;-0.994;2022-08-30T06:38:03;4.10;;;1.50;;
62947;SDS011;51940;52.126;-0.994;2022-08-30T06:40:29;2.20;;;1.60;;
62947;SDS011;51940;52.126;-0.994;2022-08-30T06:42:54;3.00;;;1.60;;
62947;SDS011;51940;52.126;-0.994;2022-08-30T06:45:20;3.00;;;1.70;;
62947;SDS011;51940;52.126;-0.994;2022-08-30T06:47:46;2.80;;;1.50;;
62947;SDS011;51940;52.126;-0.994;2022-08-30T06:50:13;4.50;;;1.90;;
62947;SDS011;51940;52.126;-0.994;2022-08-30T06:52:40;4.90;;;1.60;;
62947;SDS011;51940;52.126;-0.994;2022-08-30T06:55:11;5.10;;;1.60;;
62947;SDS011;51940;52.126;-0.994;2022-08-30T06:57:38;3.60;;;1.60;;
62947;SDS011;51940;52.126;-0.994;2022-08-30T07:00:05;4.30;;;1.70;;
62947;SDS011;51940;52.126;-0.994;2022-08-30T07:02:33;3.60;;;1.70;;
62947;SDS011;51940;52.126;-0.994;2022-08-30T07:05:00;5.40;;;1.50;;
62947;SDS011;51940;52.126;-0.994;2022-08-30T07:07:26;6.20;;;1.80;;
62947;SDS011;51940;52.126;-0.994;2022-08-30T07:09:52;4.60;;;1.70;;
62947;SDS011;51940;52.126;-0.994;2022-08-30T07:12:18;3.30;;;1.70;;
62947;SDS011;51940;52.126;-0.994;2022-08-30T07:14:43;4.20;;;1.60;;
62947;SDS011;51940;52.126;-0.994;2022-08-30T07:17:09;3.20;;;1.50;;
62947;SDS011;51940;52.126;-0.994;2022-08-30T07:19:53;4.40;;;1.80;;
62947;SDS011;51940;52.126;-0.994;2022-08-30T07:22:19;4.80;;;1.70;;
62947;SDS011;51940;52.126;-0.994;2022-08-30T07:24:45;6.20;;;1.90;;
62947;SDS011;51940;52.126;-0.994;2022-08-30T07:27:11;5.40;;;1.60;;
62947;SDS011;51940;52.126;-0.994;2022-08-30T07:29:37;3.10;;;1.60;;
62947;SDS011;51940;52.126;-0.994;2022-08-30T07:32:03;4.70;;;1.50;;
62947;SDS011;51940;52.126;-0.994;2022-08-30T07:34:29;5.70;;;1.60;;
62947;SDS011;51940;52.126;-0.994;2022-08-30T07:36:55;5.80;;;1.50;;
62947;SDS011;51940;52.126;-0.994;2022-08-30T07:39:20;4.50;;;1.40;;
62947;SDS011;51940;52.126;-0.994;2022-08-30T07:41:46;2.20;;;1.30;;
62947;SDS011;51940;52.126;-0.994;2022-08-30T07:44:13;2.80;;;1.80;;
62947;SDS011;51940;52.126;-0.994;2022-08-30T07:46:39;5.10;;;1.30;;
62947;SDS011;51940;52.126;-0.994;2022-08-30T07:49:06;2.80;;;1.40;;
62947;SDS011;51940;52.126;-0.994;2022-08-30T07:51:32;2.50;;;1.40;;
62947;SDS011;51940;52.126;-0.994;2022-08-30T07:53:58;2.90;;;1.40;;
62947;SDS011;51940;52.126;-0.994;2022-08-30T07:56:24;4.40;;;1.50;;
62947;SDS011;51940;52.126;-0.994;2022-08-30T07:58:50;2.50;;;1.00;;
62947;SDS011;51940;52.126;-0.994;2022-08-30T08:01:17;2.50;;;1.40;;
62947;SDS011;51940;52.126;-0.994;2022-08-30T08:03:44;2.40;;;1.40;;
62947;SDS011;51940;52.126;-0.994;2022-08-30T08:06:12;2.70;;;1.30;;
62947;SDS011;51940;52.126;-0.994;2022-08-30T08:08:40;2.10;;;1.10;;
62947;SDS011;51940;52.126;-0.994;2022-08-30T08:13:32;5.20;;;1.30;;
62947;SDS011;51940;52.126;-0.994;2022-08-30T08:15:58;3.60;;;1.20;;
62947;SDS011;51940;52.126;-0.994;2022-08-30T08:18:24;3.10;;;1.50;;
62947;SDS011;51940;52.126;-0.994;2022-08-30T08:20:49;2.20;;;1.20;;
62947;SDS011;51940;52.126;-0.994;2022-08-30T08:23:15;2.50;;;1.20;;
62947;SDS011;51940;52.126;-0.994;2022-08-30T08:25:40;5.40;;;1.30;;
62947;SDS011;51940;52.126;-0.994;2022-08-30T08:28:06;3.10;;;1.30;;
62947;SDS011;51940;52.126;-0.994;2022-08-30T08:30:33;2.30;;;1.10;;
62947;SDS011;51940;52.126;-0.994;2022-08-30T08:33:00;1.80;;;1.30;;
62947;SDS011;51940;52.126;-0.994;2022-08-30T08:35:25;5.30;;;1.40;;
62947;SDS011;51940;52.126;-0.994;2022-08-30T08:37:51;4.40;;;1.20;;
62947;SDS011;51940;52.126;-0.994;2022-08-30T08:40:17;2.70;;;1.50;;
62947;SDS011;51940;52.126;-0.994;2022-08-30T08:43:04;5.20;;;1.30;;
62947;SDS011;51940;52.126;-0.994;2022-08-30T08:48:28;3.50;;;1.30;;
62947;SDS011;51940;52.126;-0.994;2022-08-30T08:50:54;5.10;;;1.30;;
62947;SDS011;51940;52.126;-0.994;2022-08-30T08:53:39;3.80;;;1.10;;
62947;SDS011;51940;52.126;-0.994;2022-08-30T08:56:13;4.50;;;1.20;;
62947;SDS011;51940;52.126;-0.994;2022-08-30T09:01:09;2.90;;;1.20;;
62947;SDS011;51940;52.126;-0.994;2022-08-30T09:03:37;2.70;;;1.30;;
62947;SDS011;51940;52.126;-0.994;2022-08-30T09:06:06;3.50;;;1.30;;
62947;SDS011;51940;52.126;-0.994;2022-08-30T09:08:54;4.60;;;1.30;;
62947;SDS011;51940;52.126;-0.994;2022-08-30T09:11:22;2.70;;;1.50;;
62947;SDS011;51940;52.126;-0.994;2022-08-30T09:13:51;3.10;;;1.10;;
62947;SDS011;51940;52.126;-0.994;2022-08-30T09:22:25;5.20;;;1.10;;
62947;SDS011;51940;52.126;-0.994;2022-08-30T09:24:59;1.70;;;1.00;;
62947;SDS011;51940;52.126;-0.994;2022-08-30T09:27:33;2.30;;;1.30;;
62947;SDS011;51940;52.126;-0.994;2022-08-30T09:32:36;4.60;;;1.10;;
62947;SDS011;51940;52.126;-0.994;2022-08-30T09:35:06;2.20;;;1.20;;
62947;SDS011;51940;52.126;-0.994;2022-08-30T09:37:37;1.70;;;1.20;;
62947;SDS011;51940;52.126;-0.994;2022-08-30T09:40:07;2.80;;;1.30;;
62947;SDS011;51940;52.126;-0.994;2022-08-30T09:42:41;1.40;;;1.10;;
62947;SDS011;51940;52.126;-0.994;2022-08-30T09:45:34;4.50;;;1.20;;
62947;SDS011;51940;52.126;-0.994;2022-08-30T09:48:27;4.10;;;1.40;;
62947;SDS011;51940;52.126;-0.994;2022-08-30T09:50:53;3.90;;;1.30;;
62947;SDS011;51940;52.126;-0.994;2022-08-30T09:53:34;4.30;;;1.30;;
62947;SDS011;51940;52.126;-0.994;2022-08-30T09:56:08;2.90;;;1.10;;
62947;SDS011;51940;52.126;-0.994;2022-08-30T10:01:19;3.20;;;1.30;;
62947;SDS011;51940;52.126;-0.994;2022-08-30T10:03:50;3.20;;;1.10;;
62947;SDS011;51940;52.126;-0.994;2022-08-30T10:12:17;1.90;;;1.30;;
62947;SDS011;51940;52.126;-0.994;2022-08-30T10:20:25;3.40;;;1.10;;
62947;SDS011;51940;52.126;-0.994;2022-08-30T10:23:44;4.20;;;1.30;;
62947;SDS011;51940;52.126;-0.994;2022-08-30T10:25:58;4.40;;;1.70;;
62947;SDS011;51940;52.126;-0.994;2022-08-30T10:28:47;2.30;;;1.50;;
62947;SDS011;51940;52.126;-0.994;2022-08-30T10:34:19;5.80;;;1.40;;
62947;SDS011;51940;52.126;-0.994;2022-08-30T10:36:55;5.50;;;1.20;;
62947;SDS011;51940;52.126;-0.994;2022-08-30T10:39:28;5.90;;;2.10;;
62947;SDS011;51940;52.126;-0.994;2022-08-30T10:42:07;2.50;;;1.20;;
62947;SDS011;51940;52.126;-0.994;2022-08-30T10:44:45;2.30;;;1.20;;
62947;SDS011;51940;52.126;-0.994;2022-08-30T10:50:11;1.70;;;1.20;;
62947;SDS011;51940;52.126;-0.994;2022-08-30T10:52:44;4.30;;;1.10;;
62947;SDS011;51940;52.126;-0.994;2022-08-30T10:55:20;3.00;;;1.10;;
62947;SDS011;51940;52.126;-0.994;2022-08-30T10:57:49;4.90;;;1.50;;
62947;SDS011;51940;52.126;-0.994;2022-08-30T11:00:26;2.70;;;1.20;;
62947;SDS011;51940;52.126;-0.994;2022-08-30T11:13:51;3.30;;;1.10;;
62947;SDS011;51940;52.126;-0.994;2022-08-30T11:16:19;3.70;;;1.20;;
62947;SDS011;51940;52.126;-0.994;2022-08-30T11:19:11;2.40;;;1.20;;
62947;SDS011;51940;52.126;-0.994;2022-08-30T11:21:45;5.90;;;1.20;;
62947;SDS011;51940;52.126;-0.994;2022-08-30T11:24:23;3.80;;;1.10;;
62947;SDS011;51940;52.126;-0.994;2022-08-30T11:26:50;4.20;;;1.10;;
62947;SDS011;51940;52.126;-0.994;2022-08-30T11:31:57;2.40;;;1.20;;
62947;SDS011;51940;52.126;-0.994;2022-08-30T11:37:09;2.30;;;1.30;;
62947;SDS011;51940;52.126;-0.994;2022-08-30T11:39:54;3.60;;;1.40;;
62947;SDS011;51940;52.126;-0.994;2022-08-30T11:47:48;5.10;;;1.10;;
62947;SDS011;51940;52.126;-0.994;2022-08-30T11:50:19;1.70;;;1.10;;
62947;SDS011;51940;52.126;-0.994;2022-08-30T11:53:02;3.10;;;1.20;;
62947;SDS011;51940;52.126;-0.994;2022-08-30T11:58:33;1.60;;;1.10;;
62947;SDS011;51940;52.126;-0.994;2022-08-30T12:14:56;2.90;;;1.10;;
62947;SDS011;51940;52.126;-0.994;2022-08-30T12:17:28;3.20;;;1.40;;
62947;SDS011;51940;52.126;-0.994;2022-08-30T12:26:15;3.20;;;1.60;;
62947;SDS011;51940;52.126;-0.994;2022-08-30T12:29:06;6.10;;;1.60;;
62947;SDS011;51940;52.126;-0.994;2022-08-30T12:31:43;3.80;;;1.80;;
62947;SDS011;51940;52.126;-0.994;2022-08-30T12:34:19;5.10;;;1.80;;
62947;SDS011;51940;52.126;-0.994;2022-08-30T12:36:50;6.90;;;1.90;;
62947;SDS011;51940;52.126;-0.994;2022-08-30T12:39:29;6.70;;;1.60;;
62947;SDS011;51940;52.126;-0.994;2022-08-30T12:45:22;3.20;;;1.50;;
62947;SDS011;51940;52.126;-0.994;2022-08-30T12:47:55;4.00;;;1.70;;
62947;SDS011;51940;52.126;-0.994;2022-08-30T12:50:26;3.50;;;1.70;;
62947;SDS011;51940;52.126;-0.994;2022-08-30T12:55:28;3.10;;;1.60;;
62947;SDS011;51940;52.126;-0.994;2022-08-30T12:58:04;3.00;;;1.80;;
62947;SDS011;51940;52.126;-0.994;2022-08-30T13:00:37;4.10;;;2.50;;
62947;SDS011;51940;52.126;-0.994;2022-08-30T13:06:00;5.30;;;1.60;;
62947;SDS011;51940;52.126;-0.994;2022-08-30T13:08:34;6.00;;;2.10;;
62947;SDS011;51940;52.126;-0.994;2022-08-30T13:13:49;3.30;;;1.20;;
62947;SDS011;51940;52.126;-0.994;2022-08-30T13:19:30;4.60;;;1.50;;
62947;SDS011;51940;52.126;-0.994;2022-08-30T13:21:50;4.60;;;1.40;;
62947;SDS011;51940;52.126;-0.994;2022-08-30T13:24:21;3.80;;;1.60;;
62947;SDS011;51940;52.126;-0.994;2022-08-30T13:26:48;3.50;;;1.80;;
62947;SDS011;51940;52.126;-0.994;2022-08-30T13:29:15;6.70;;;1.60;;
62947;SDS011;51940;52.126;-0.994;2022-08-30T13:31:42;2.30;;;1.10;;
62947;SDS011;51940;52.126;-0.994;2022-08-30T13:34:08;4.00;;;1.60;;
62947;SDS011;51940;52.126;-0.994;2022-08-30T13:36:35;5.20;;;1.30;;
62947;SDS011;51940;52.126;-0.994;2022-08-30T13:39:04;4.80;;;1.60;;
62947;SDS011;51940;52.126;-0.994;2022-08-30T13:41:30;4.00;;;1.70;;
62947;SDS011;51940;52.126;-0.994;2022-08-30T13:43:56;6.70;;;2.70;;
62947;SDS011;51940;52.126;-0.994;2022-08-30T13:46:22;3.80;;;1.60;;
62947;SDS011;51940;52.126;-0.994;2022-08-30T13:48:55;3.80;;;1.50;;
62947;SDS011;51940;52.126;-0.994;2022-08-30T13:51:24;4.20;;;2.10;;
62947;SDS011;51940;52.126;-0.994;2022-08-30T13:53:50;4.70;;;1.50;;
62947;SDS011;51940;52.126;-0.994;2022-08-30T13:56:16;3.30;;;1.80;;
62947;SDS011;51940;52.126;-0.994;2022-08-30T13:58:41;3.50;;;1.60;;
62947;SDS011;51940;52.126;-0.994;2022-08-30T14:01:07;3.90;;;1.40;;
62947;SDS011;51940;52.126;-0.994;2022-08-30T14:03:32;5.50;;;1.40;;
62947;SDS011;51940;52.126;-0.994;2022-08-30T14:05:58;2.60;;;1.30;;
62947;SDS011;51940;52.126;-0.994;2022-08-30T14:08:28;2.80;;;1.40;;
62947;SDS011;51940;52.126;-0.994;2022-08-30T14:10:55;4.70;;;1.50;;
62947;SDS011;51940;52.126;-0.994;2022-08-30T14:13:21;4.50;;;1.40;;
62947;SDS011;51940;52.126;-0.994;2022-08-30T14:15:48;3.00;;;1.40;;
62947;SDS011;51940;52.126;-0.994;2022-08-30T14:18:15;4.30;;;1.30;;
62947;SDS011;51940;52.126;-0.994;2022-08-30T14:20:40;2.50;;;1.30;;
62947;SDS011;51940;52.126;-0.994;2022-08-30T14:23:05;3.70;;;1.40;;
62947;SDS011;51940;52.126;-0.994;2022-08-30T14:25:31;2.80;;;1.20;;
62947;SDS011;51940;52.126;-0.994;2022-08-30T14:27:57;2.00;;;1.10;;
62947;SDS011;51940;52.126;-0.994;2022-08-30T14:30:23;6.30;;;1.30;;
62947;SDS011;51940;52.126;-0.994;2022-08-30T14:32:49;3.60;;;1.20;;
62947;SDS011;51940;52.126;-0.994;2022-08-30T14:35:15;4.30;;;1.30;;
62947;SDS011;51940;52.126;-0.994;2022-08-30T14:37:46;5.50;;;1.40;;
62947;SDS011;51940;52.126;-0.994;2022-08-30T14:40:13;4.80;;;1.20;;
62947;SDS011;51940;52.126;-0.994;2022-08-30T14:42:40;4.90;;;1.10;;
62947;SDS011;51940;52.126;-0.994;2022-08-30T14:45:07;4.00;;;1.50;;
62947;SDS011;51940;52.126;-0.994;2022-08-30T14:47:34;2.30;;;0.90;;
62947;SDS011;51940;52.126;-0.994;2022-08-30T14:49:59;2.50;;;1.10;;
62947;SDS011;51940;52.126;-0.994;2022-08-30T14:52:27;3.80;;;1.20;;
62947;SDS011;51940;52.126;-0.994;2022-08-30T14:54:53;5.10;;;1.30;;
62947;SDS011;51940;52.126;-0.994;2022-08-30T14:57:19;2.50;;;1.00;;
62947;SDS011;51940;52.126;-0.994;2022-08-30T14:59:44;1.60;;;1.10;;
62947;SDS011;51940;52.126;-0.994;2022-08-30T15:02:10;4.20;;;1.10;;
62947;SDS011;51940;52.126;-0.994;2022-08-30T15:04:35;4.00;;;1.10;;
62947;SDS011;51940;52.126;-0.994;2022-08-30T15:07:01;2.50;;;1.00;;
62947;SDS011;51940;52.126;-0.994;2022-08-30T15:09:27;3.20;;;1.30;;
62947;SDS011;51940;52.126;-0.994;2022-08-30T15:11:54;3.00;;;0.90;;
62947;SDS011;51940;52.126;-0.994;2022-08-30T15:14:22;2.50;;;1.10;;
62947;SDS011;51940;52.126;-0.994;2022-08-30T15:16:48;2.30;;;1.20;;
62947;SDS011;51940;52.126;-0.994;2022-08-30T15:19:14;2.30;;;1.20;;
62947;SDS011;51940;52.126;-0.994;2022-08-30T15:21:42;4.70;;;1.10;;
62947;SDS011;51940;52.126;-0.994;2022-08-30T15:24:11;3.30;;;1.30;;
62947;SDS011;51940;52.126;-0.994;2022-08-30T15:26:39;3.30;;;1.30;;
62947;SDS011;51940;52.126;-0.994;2022-08-30T15:29:08;1.20;;;0.90;;
62947;SDS011;51940;52.126;-0.994;2022-08-30T15:31:37;2.80;;;1.00;;
62947;SDS011;51940;52.126;-0.994;2022-08-30T15:34:04;5.10;;;1.30;;
62947;SDS011;51940;52.126;-0.994;2022-08-30T15:36:34;3.30;;;1.30;;
62947;SDS011;51940;52.126;-0.994;2022-08-30T15:39:01;2.90;;;1.20;;
62947;SDS011;51940;52.126;-0.994;2022-08-30T15:41:28;1.90;;;1.00;;
62947;SDS011;51940;52.126;-0.994;2022-08-30T15:43:55;3.90;;;1.20;;
62947;SDS011;51940;52.126;-0.994;2022-08-30T15:46:23;5.80;;;1.30;;
62947;SDS011;51940;52.126;-0.994;2022-08-30T15:48:52;3.30;;;1.50;;
62947;SDS011;51940;52.126;-0.994;2022-08-30T15:51:22;6.60;;;1.40;;
62947;SDS011;51940;52.126;-0.994;2022-08-30T15:53:48;2.60;;;1.40;;
62947;SDS011;51940;52.126;-0.994;2022-08-30T15:56:16;4.00;;;1.70;;
62947;SDS011;51940;52.126;-0.994;2022-08-30T15:58:42;2.70;;;1.20;;
62947;SDS011;51940;52.126;-0.994;2022-08-30T16:01:09;3.60;;;1.10;;
62947;SDS011;51940;52.126;-0.994;2022-08-30T16:03:35;3.20;;;1.20;;
62947;SDS011;51940;52.126;-0.994;2022-08-30T16:06:04;5.20;;;1.70;;
62947;SDS011;51940;52.126;-0.994;2022-08-30T16:08:35;3.00;;;1.30;;
62947;SDS011;51940;52.126;-0.994;2022-08-30T16:11:00;3.90;;;1.20;;
62947;SDS011;51940;52.126;-0.994;2022-08-30T16:13:25;3.20;;;1.50;;
62947;SDS011;51940;52.126;-0.994;2022-08-30T16:15:51;3.30;;;1.20;;
62947;SDS011;51940;52.126;-0.994;2022-08-30T16:18:17;2.80;;;1.40;;